Terminal Aerodrome Forecast
Issued by NWS Portland, ME

Home | Current Version | Previous Version | Text Only | Print | Product List | Glossary On
Versions: 1 2 3 4 5 6 7 8 9 10 11 12 13 14 15 16 17 18 19 20 21 22 23
488
FTUS41 KGYX 191523 AAB
TAFCON
TAF AMD
KCON 191523Z 1915/2012 00000KT 6SM BR OVC005
     FM191630 00000KT P6SM OVC025
     FM200300 VRB03KT P6SM SCT200=

USA.gov is the U.S. government's official web portal to all federal, state and local government web resources and services.